Dickinson, ND

2:12 PM MST on December 09, 2016 (GMT -0700)
Dickinson Municipal | | Change Station

Elev 2592 ft 46.80 °N, 102.80 °W | Updated 1 hour ago

Clear
Clear
-6 °F
Feels Like -19 °F
N
6
Wind Variable Wind from WSW

Today
High -- | Low -- °F
--% Chance of Precip.
Yesterday
High -- | Low -- °F
Precip. -- in
Pressure 30.67 in
Visibility 10.0 miles
Clouds Clear
Windchill -19 °F
Dew Point -11 °F
Humidity 79%
Rainfall 0.00 in
Snow Depth Not available.
7:24 AM 4:02 PM
Waxing Gibbous, 77% visible
METAR KDIK 091956Z AUTO 25005KT 10SM CLR M21/M24 A3043 RMK AO2 SLP384 T12111239
Pressure 30.67 in
Visibility 10.0 miles
Clouds Clear
Windchill -19 °F
Dew Point -11 °F
Humidity 79%
Rainfall 0.00 in
Snow Depth Not available.
7:24 AM 4:02 PM
Waxing Gibbous, 77% visible
METAR KDIK 091956Z AUTO 25005KT 10SM CLR M21/M24 A3043 RMK AO2 SLP384 T12111239

10-Day Weather Forecast

Almanac

Astronomy

Dec. 09, 2016 Rise Set
Actual Time
Civil Twilight
Nautical Twilight
Astronomical Twilight
Moon
Length of Visible Light
Length of Day
Tomorrow will be .
, % of the Moon is Illuminated

Today's Extremes

State Highs State Lows

Community

WunderPhotos

Upload Photos

1,956,517 photos uploaded!

WunderBlog® & News

Nearby

Air Quality

  Air Quality AQ Index Pollutant
Not available.

Snow Depth

Station Depth Elevation

Earthquake Activity

City Distance Mag. Time & Date
Minimum magnitude displayed is 2.5.

Coastal Water Temperatures

Place Temperature

Stations

Nearby Weather Stations

Station Location Temp. Windchill Dew Point Humidity Wind Precip. Elev Updated Type
                   

Watches & Warnings

There are currently no watches in effect.